createdAt,value
2022-12-25T00:00:34.737Z,4
2022-12-25T00:01:34.869Z,3.92
2022-12-25T00:02:35.096Z,3.92
2022-12-25T00:03:35.202Z,4.32
2022-12-25T00:04:35.276Z,4.72
2022-12-25T00:05:35.385Z,4.72
2022-12-25T00:06:35.539Z,4.4
2022-12-25T00:07:35.626Z,4.4
2022-12-25T00:08:35.730Z,4.4
2022-12-25T00:09:35.886Z,4.4
2022-12-25T00:10:39.902Z,4.64
2022-12-25T00:11:36.138Z,4.48
2022-12-25T00:12:36.288Z,4.48
2022-12-25T00:13:36.403Z,4.32
2022-12-25T00:14:36.489Z,4.48
2022-12-25T00:15:36.596Z,4.64
2022-12-25T00:16:36.785Z,4.64
2022-12-25T00:17:36.843Z,4.64
2022-12-25T00:18:36.945Z,4.64
2022-12-25T00:19:37.051Z,4.64
2022-12-25T00:20:37.210Z,4.48
2022-12-25T00:21:37.309Z,4.64
2022-12-25T00:22:37.410Z,4.64
2022-12-25T00:23:37.515Z,4.64
2022-12-25T00:24:37.686Z,4.4
2022-12-25T00:25:37.809Z,4.48
2022-12-25T00:26:37.907Z,4.16
2022-12-25T00:27:38.005Z,4.4
2022-12-25T00:28:38.164Z,4.16
2022-12-25T00:29:38.260Z,4.32
2022-12-25T00:30:38.415Z,4.16
2022-12-25T00:31:38.654Z,4.4
2022-12-25T00:32:38.669Z,4.4
2022-12-25T00:33:38.791Z,4.4
2022-12-25T00:34:38.873Z,4.64
2022-12-25T00:35:38.975Z,4.48
2022-12-25T00:36:41.797Z,4.4
2022-12-25T00:37:39.225Z,4.48
2022-12-25T00:38:39.332Z,4.4
2022-12-25T00:39:39.428Z,4.48
2022-12-25T00:40:39.528Z,4.4
2022-12-25T00:41:39.697Z,4.4
2022-12-25T00:42:39.780Z,4.4
2022-12-25T00:43:39.885Z,4.4
2022-12-25T00:44:39.989Z,4.4
2022-12-25T00:45:40.145Z,4.64
2022-12-25T00:46:40.306Z,4.64
2022-12-25T00:47:40.387Z,4.64
2022-12-25T00:48:40.494Z,4.72
2022-12-25T00:49:40.591Z,4.72
2022-12-25T00:50:40.697Z,4.8
2022-12-25T00:51:40.808Z,4.64
2022-12-25T00:52:40.901Z,4.72
2022-12-25T00:53:41.050Z,4.64
2022-12-25T00:54:41.146Z,4.48
2022-12-25T00:55:41.301Z,4.48
2022-12-25T00:56:41.456Z,4.48
2022-12-25T00:57:41.568Z,4.4
2022-12-25T00:58:41.703Z,4.32
2022-12-25T00:59:41.808Z,4.4
2022-12-25T01:00:41.914Z,4.16
2022-12-25T01:01:42.158Z,4.16
2022-12-25T01:02:42.221Z,4.16
2022-12-25T01:03:42.272Z,4.08
2022-12-25T01:04:42.415Z,4
2022-12-25T01:05:42.513Z,4.16
2022-12-25T01:06:42.622Z,4.08
2022-12-25T01:07:42.771Z,4.16
2022-12-25T01:08:42.867Z,4.08
2022-12-25T01:09:42.970Z,4
2022-12-25T01:10:43.071Z,3.92
2022-12-25T01:11:43.172Z,3.92
2022-12-25T01:12:43.335Z,4
2022-12-25T01:13:43.437Z,4.16
2022-12-25T01:14:43.584Z,4
2022-12-25T01:15:43.731Z,3.84
2022-12-25T01:16:43.932Z,3.92
2022-12-25T01:17:44.038Z,4
2022-12-25T01:18:44.132Z,3.6
2022-12-25T01:19:44.236Z,3.6
2022-12-25T01:20:44.384Z,3.52
2022-12-25T01:21:44.485Z,3.68
2022-12-25T01:22:44.588Z,3.68
2022-12-25T01:23:44.720Z,3.68
2022-12-25T01:24:44.813Z,4
2022-12-25T01:25:44.942Z,3.68
2022-12-25T01:26:45.094Z,3.84
2022-12-25T01:27:45.203Z,3.84
2022-12-25T01:28:45.361Z,4
2022-12-25T01:29:45.460Z,4
2022-12-25T01:30:45.601Z,4
2022-12-25T01:31:45.785Z,3.92
2022-12-25T01:32:45.855Z,4
2022-12-25T01:33:46.010Z,4
2022-12-25T01:34:49.300Z,3.92
2022-12-25T01:35:46.262Z,3.84
2022-12-25T01:36:46.417Z,4
2022-12-25T01:37:46.561Z,3.92
2022-12-25T01:38:46.661Z,3.92
2022-12-25T01:39:46.766Z,3.92
2022-12-25T01:40:46.864Z,3.84
2022-12-25T01:41:46.970Z,3.92
2022-12-25T01:42:47.123Z,3.92
2022-12-25T01:43:47.269Z,3.84
2022-12-25T01:44:47.429Z,3.6
2022-12-25T01:45:47.690Z,3.2
2022-12-25T01:46:47.673Z,2.88
2022-12-25T01:47:47.824Z,3.04
2022-12-25T01:48:47.981Z,2.72
2022-12-25T01:49:48.137Z,2.8
2022-12-25T01:50:48.285Z,3.04
2022-12-25T01:51:48.400Z,3.04
2022-12-25T01:52:48.538Z,3.04
2022-12-25T01:53:48.656Z,2.8
2022-12-25T01:54:48.740Z,2.64
2022-12-25T01:55:48.884Z,3.04
2022-12-25T01:56:49.039Z,3.28
2022-12-25T01:57:49.141Z,3.04
2022-12-25T01:58:49.247Z,3.04
2022-12-25T01:59:49.362Z,3.04
2022-12-25T02:00:49.535Z,3.12
2022-12-25T02:01:49.749Z,3.28
2022-12-25T02:02:49.833Z,3.2
2022-12-25T02:03:49.908Z,2.88
2022-12-25T02:04:50.030Z,3.12
2022-12-25T02:05:50.155Z,3.12
2022-12-25T02:06:50.310Z,3.04
2022-12-25T02:07:50.455Z,3.12
2022-12-25T02:08:50.578Z,3.12
2022-12-25T02:09:50.676Z,3.44
2022-12-25T02:10:50.773Z,3.44
2022-12-25T02:11:50.861Z,3.44
2022-12-25T02:12:50.970Z,3.44
2022-12-25T02:13:51.120Z,3.44
2022-12-25T02:14:51.217Z,3.44
2022-12-25T02:15:51.323Z,3.28
2022-12-25T02:16:57.125Z,3.04
2022-12-25T02:17:51.572Z,2.88
2022-12-25T02:18:51.718Z,2.72
2022-12-25T02:19:51.826Z,3.04
2022-12-25T02:20:51.921Z,3.04
2022-12-25T02:21:52.034Z,3.2
2022-12-25T02:22:52.305Z,3.28
2022-12-25T02:23:52.275Z,3.2
2022-12-25T02:24:52.432Z,3.28
2022-12-25T02:25:52.538Z,3.2
2022-12-25T02:26:52.662Z,3.12
2022-12-25T02:27:52.781Z,3.2
2022-12-25T02:28:52.886Z,3.12
2022-12-25T02:29:52.987Z,3.2
2022-12-25T02:30:53.093Z,3.44
2022-12-25T02:31:53.306Z,3.44
2022-12-25T02:32:53.349Z,3.2
2022-12-25T02:33:53.491Z,3.28
2022-12-25T02:34:53.645Z,3.28
2022-12-25T02:35:53.808Z,3.44
2022-12-25T02:36:53.899Z,3.52
2022-12-25T02:37:54.048Z,3.44
2022-12-25T02:38:54.154Z,3.28
2022-12-25T02:39:54.303Z,3.28
2022-12-25T02:40:54.399Z,3.2
2022-12-25T02:41:54.550Z,3.2
2022-12-25T02:42:54.663Z,3.28
2022-12-25T02:43:54.811Z,3.28
2022-12-25T02:44:54.907Z,3.2
2022-12-25T02:45:55.123Z,3.2
2022-12-25T02:46:55.161Z,3.12
2022-12-25T02:47:55.269Z,3.04
2022-12-25T02:48:55.364Z,3.04
2022-12-25T02:49:55.518Z,3.04
2022-12-25T02:50:55.626Z,3.04
2022-12-25T02:51:55.719Z,2.88
2022-12-25T02:52:55.823Z,2.88
2022-12-25T02:53:55.925Z,2.88
2022-12-25T02:54:56.022Z,2.8
2022-12-25T02:55:56.180Z,2.88
2022-12-25T02:56:56.279Z,3.04
2022-12-25T02:57:56.382Z,3.12
2022-12-25T02:58:56.474Z,2.88
2022-12-25T02:59:56.585Z,3.04
2022-12-25T03:00:56.736Z,3.04
2022-12-25T03:01:56.920Z,3.04
2022-12-25T03:02:56.906Z,2.88
2022-12-25T03:03:57.000Z,2.88
2022-12-25T03:04:57.135Z,3.12
2022-12-25T03:05:57.265Z,2.88
2022-12-25T03:06:57.351Z,3.04
2022-12-25T03:07:57.494Z,2.88
2022-12-25T03:08:57.660Z,2.88
2022-12-25T03:09:57.744Z,3.12
2022-12-25T03:10:57.846Z,3.12
2022-12-25T03:11:58.005Z,3.2
2022-12-25T03:12:58.108Z,3.04
2022-12-25T03:13:58.251Z,3.44
2022-12-25T03:14:58.355Z,3.28
2022-12-25T03:15:58.516Z,3.28
2022-12-25T03:16:58.710Z,3.52
2022-12-25T03:17:58.763Z,3.52
2022-12-25T03:18:58.857Z,3.44
2022-12-25T03:19:59.009Z,3.28
2022-12-25T03:20:59.115Z,3.52
2022-12-25T03:21:59.215Z,3.52
2022-12-25T03:22:59.366Z,3.44
2022-12-25T03:23:59.466Z,3.6
2022-12-25T03:24:59.564Z,3.6
2022-12-25T03:25:59.727Z,3.6
2022-12-25T03:26:59.898Z,3.52
2022-12-25T03:28:00.033Z,3.52
2022-12-25T03:29:00.125Z,3.6
2022-12-25T03:30:00.273Z,3.6
2022-12-25T03:31:00.415Z,3.92
2022-12-25T03:32:00.483Z,3.84
2022-12-25T03:33:01.859Z,4
2022-12-25T03:34:00.742Z,3.84
2022-12-25T03:35:00.888Z,4
2022-12-25T03:36:01.042Z,4.08
2022-12-25T03:37:01.145Z,4.08
2022-12-25T03:38:01.249Z,4.08
2022-12-25T03:39:01.338Z,3.68
2022-12-25T03:40:01.498Z,3.52
2022-12-25T03:41:01.596Z,4
2022-12-25T03:42:01.717Z,3.6
2022-12-25T03:43:01.844Z,3.44
2022-12-25T03:44:01.947Z,3.92
2022-12-25T03:45:02.054Z,3.6
2022-12-25T03:46:02.228Z,3.2
2022-12-25T03:47:02.353Z,3.44
2022-12-25T03:48:02.454Z,3.28
2022-12-25T03:49:02.569Z,3.12
2022-12-25T03:50:02.657Z,3.2
2022-12-25T03:51:02.803Z,3.52
2022-12-25T03:52:02.964Z,3.28
2022-12-25T03:53:03.066Z,3.52
2022-12-25T03:54:03.167Z,3.28
2022-12-25T03:55:03.265Z,3.2
2022-12-25T03:56:03.372Z,3.2
2022-12-25T03:57:03.520Z,3.52
2022-12-25T03:58:03.616Z,3.6
2022-12-25T03:59:03.771Z,3.92
2022-12-25T04:00:03.881Z,4
2022-12-25T04:01:04.046Z,3.84
2022-12-25T04:02:04.267Z,3.6
2022-12-25T04:03:04.369Z,3.84
2022-12-25T04:04:04.430Z,3.68
2022-12-25T04:05:04.575Z,3.92
2022-12-25T04:06:04.699Z,3.68
2022-12-25T04:07:04.832Z,3.84
2022-12-25T04:08:04.942Z,3.6
2022-12-25T04:09:05.064Z,3.2
2022-12-25T04:10:05.192Z,3.52
2022-12-25T04:11:05.296Z,3.52
2022-12-25T04:12:05.439Z,3.28
2022-12-25T04:13:05.595Z,3.28
2022-12-25T04:14:05.698Z,3.44
2022-12-25T04:15:05.790Z,3.28
2022-12-25T04:16:05.996Z,3.2
2022-12-25T04:17:06.061Z,3.2
2022-12-25T04:18:06.199Z,2.8
2022-12-25T04:19:06.350Z,2.32
2022-12-25T04:20:06.449Z,2.32
2022-12-25T04:21:06.600Z,2.24
2022-12-25T04:22:06.707Z,2.48
2022-12-25T04:23:06.858Z,2.48
2022-12-25T04:24:07.014Z,2.64
2022-12-25T04:25:07.159Z,2.64
2022-12-25T04:26:07.277Z,2.24
2022-12-25T04:27:07.409Z,2.32
2022-12-25T04:28:07.512Z,2.32
2022-12-25T04:29:07.609Z,2.32
2022-12-25T04:30:07.719Z,2.48
2022-12-25T04:31:07.889Z,2.48
2022-12-25T04:32:08.016Z,2.4
2022-12-25T04:33:08.074Z,2.24
2022-12-25T04:34:08.172Z,1.92
2022-12-25T04:35:08.329Z,1.92
2022-12-25T04:36:08.426Z,1.92
2022-12-25T04:37:08.529Z,2.24
2022-12-25T04:38:08.631Z,1.84
2022-12-25T04:39:08.725Z,1.6
2022-12-25T04:40:08.833Z,1.92
2022-12-25T04:41:08.981Z,1.68
2022-12-25T04:42:09.081Z,1.68
2022-12-25T04:43:09.193Z,2
2022-12-25T04:44:09.338Z,1.6
2022-12-25T04:45:09.440Z,1.52
2022-12-25T04:46:09.586Z,1.92
2022-12-25T04:47:11.596Z,1.92
2022-12-25T04:48:09.840Z,1.6
2022-12-25T04:49:09.994Z,1.84
2022-12-25T04:50:10.159Z,2
2022-12-25T04:51:10.257Z,2
2022-12-25T04:52:10.413Z,2
2022-12-25T04:53:10.560Z,2.08
2022-12-25T04:54:10.667Z,2.32
2022-12-25T04:55:10.755Z,2.24
2022-12-25T04:56:10.858Z,2.64
2022-12-25T04:57:10.964Z,2.4
2022-12-25T04:58:11.133Z,2.4
2022-12-25T04:59:11.212Z,2.32
2022-12-25T05:00:11.367Z,2.48
2022-12-25T05:01:11.475Z,2.72
2022-12-25T05:02:11.636Z,2.32
2022-12-25T05:03:11.807Z,2.4
2022-12-25T05:04:11.881Z,2.4
2022-12-25T05:05:11.988Z,2.32
2022-12-25T05:06:12.074Z,2.32
2022-12-25T05:07:12.222Z,2.48
2022-12-25T05:08:12.335Z,2.4
2022-12-25T05:09:12.423Z,2.72
2022-12-25T05:10:12.579Z,2.72
2022-12-25T05:11:12.694Z,2.4
2022-12-25T05:12:12.781Z,2.8
2022-12-25T05:13:12.878Z,3.04
2022-12-25T05:14:12.999Z,3.04
2022-12-25T05:15:13.129Z,3.12
2022-12-25T05:16:13.268Z,3.04
2022-12-25T05:17:13.338Z,2.88
2022-12-25T05:18:13.438Z,2.88
2022-12-25T05:19:13.593Z,2.4
2022-12-25T05:20:13.683Z,2.48
2022-12-25T05:21:13.799Z,2.72
2022-12-25T05:22:13.939Z,2.72
2022-12-25T05:23:14.041Z,2.72
2022-12-25T05:24:14.192Z,2.72
2022-12-25T05:25:14.295Z,2.72
2022-12-25T05:26:14.445Z,2.8
2022-12-25T05:27:14.549Z,2.88
2022-12-25T05:28:14.677Z,2.88
2022-12-25T05:29:14.766Z,2.88
2022-12-25T05:30:14.851Z,3.04
2022-12-25T05:31:15.043Z,3.04
2022-12-25T05:32:15.205Z,3.12
2022-12-25T05:33:15.272Z,3.12
2022-12-25T05:34:15.375Z,3.12
2022-12-25T05:35:15.526Z,3.12
2022-12-25T05:36:15.610Z,3.12
2022-12-25T05:37:15.719Z,3.12
2022-12-25T05:38:15.819Z,3.2
2022-12-25T05:39:15.917Z,3.44
2022-12-25T05:40:16.066Z,3.6
2022-12-25T05:41:16.183Z,3.6
2022-12-25T05:42:16.275Z,3.6
2022-12-25T05:43:16.424Z,3.6
2022-12-25T05:44:16.523Z,3.52
2022-12-25T05:45:16.675Z,3.6
2022-12-25T05:46:16.911Z,3.6
2022-12-25T05:47:16.982Z,3.6
2022-12-25T05:48:17.134Z,3.68
2022-12-25T05:49:17.283Z,3.92
2022-12-25T05:50:17.386Z,3.6
2022-12-25T05:51:17.485Z,3.68
2022-12-25T05:52:17.589Z,3.84
2022-12-25T05:53:17.740Z,3.68
2022-12-25T05:54:17.840Z,4
2022-12-25T05:55:17.988Z,3.68
2022-12-25T05:56:18.125Z,3.6
2022-12-25T05:57:18.193Z,3.6
2022-12-25T05:58:18.292Z,3.52
2022-12-25T05:59:18.399Z,3.68
2022-12-25T06:00:18.503Z,3.52
2022-12-25T06:01:18.714Z,3.44
2022-12-25T06:02:18.847Z,3.6
2022-12-25T06:03:18.947Z,3.52
2022-12-25T06:04:18.974Z,3.52
2022-12-25T06:05:19.056Z,3.52
2022-12-25T06:06:19.163Z,3.6
2022-12-25T06:07:19.266Z,3.84
2022-12-25T06:08:19.408Z,3.68
2022-12-25T06:09:19.560Z,3.84
2022-12-25T06:10:19.668Z,3.68
2022-12-25T06:11:19.765Z,3.92
2022-12-25T06:12:19.869Z,3.6
2022-12-25T06:13:19.971Z,3.68
2022-12-25T06:14:20.067Z,3.68
2022-12-25T06:15:20.223Z,3.6
2022-12-25T06:16:20.402Z,3.6
2022-12-25T06:17:20.471Z,3.6
2022-12-25T06:18:20.580Z,3.68
2022-12-25T06:19:20.735Z,3.6
2022-12-25T06:20:20.836Z,3.68
2022-12-25T06:21:20.985Z,3.52
2022-12-25T06:22:21.142Z,3.44
2022-12-25T06:23:21.359Z,3.28
2022-12-25T06:24:22.084Z,3.6
2022-12-25T06:25:21.602Z,3.6
2022-12-25T06:26:21.747Z,3.68
2022-12-25T06:27:21.890Z,3.92
2022-12-25T06:28:21.991Z,3.68
2022-12-25T06:29:22.141Z,3.6
2022-12-25T06:30:22.247Z,3.52
2022-12-25T06:31:22.363Z,3.52
2022-12-25T06:32:22.492Z,3.52
2022-12-25T06:33:22.653Z,3.6
2022-12-25T06:34:22.754Z,3.52
2022-12-25T06:35:22.900Z,3.28
2022-12-25T06:36:23.020Z,3.28
2022-12-25T06:37:23.101Z,3.28
2022-12-25T06:38:23.202Z,3.52
2022-12-25T06:39:23.365Z,3.44
2022-12-25T06:40:23.512Z,3.28
2022-12-25T06:41:23.609Z,3.28
2022-12-25T06:42:23.754Z,3.2
2022-12-25T06:43:23.855Z,3.2
2022-12-25T06:44:23.958Z,3.04
2022-12-25T06:45:24.078Z,2.88
2022-12-25T06:46:24.316Z,3.12
2022-12-25T06:47:24.383Z,3.04
2022-12-25T06:48:24.521Z,3.12
2022-12-25T06:49:24.620Z,3.12
2022-12-25T06:50:24.722Z,3.12
2022-12-25T06:51:24.828Z,3.2
2022-12-25T06:52:24.973Z,3.12
2022-12-25T06:53:25.127Z,2.88
2022-12-25T06:54:25.277Z,3.04
2022-12-25T06:55:25.423Z,2.88
2022-12-25T06:56:25.532Z,2.8
2022-12-25T06:57:25.688Z,2.64
2022-12-25T06:58:25.828Z,2.4
2022-12-25T06:59:25.991Z,2.32
2022-12-25T07:00:26.102Z,2.24
2022-12-25T07:01:26.316Z,2.24
2022-12-25T07:02:26.449Z,1.92
2022-12-25T07:03:26.521Z,1.92
2022-12-25T07:04:26.587Z,2.24
2022-12-25T07:05:26.687Z,2.32
2022-12-25T07:06:26.844Z,2.48
2022-12-25T07:07:26.950Z,2.48
2022-12-25T07:08:27.046Z,2.8
2022-12-25T07:09:27.149Z,2.72
2022-12-25T07:10:27.247Z,2.32
2022-12-25T07:11:27.346Z,2.4
2022-12-25T07:12:27.501Z,2.32
2022-12-25T07:13:27.698Z,2.08
2022-12-25T07:14:27.816Z,2.32
2022-12-25T07:15:27.987Z,2.32
2022-12-25T07:16:28.098Z,2.24
2022-12-25T07:17:28.212Z,2.24
2022-12-25T07:18:28.309Z,2.32
2022-12-25T07:19:28.465Z,2.08
2022-12-25T07:20:28.576Z,2.08
2022-12-25T07:21:28.718Z,2.48
2022-12-25T07:22:28.818Z,2.4
2022-12-25T07:23:28.921Z,2.48
2022-12-25T07:24:29.026Z,2.72
2022-12-25T07:25:33.652Z,2.4
2022-12-25T07:26:29.227Z,2.32
2022-12-25T07:27:29.334Z,2.32
2022-12-25T07:28:29.479Z,2.72
2022-12-25T07:29:29.681Z,2.48
2022-12-25T07:30:30.160Z,2.4
2022-12-25T07:31:29.934Z,2.32
2022-12-25T07:32:30.031Z,2.32
2022-12-25T07:33:30.183Z,2.48
2022-12-25T07:34:30.337Z,2.64
2022-12-25T07:35:30.434Z,2.48
2022-12-25T07:36:30.608Z,2.48
2022-12-25T07:37:30.688Z,2.64
2022-12-25T07:38:30.796Z,2.4
2022-12-25T07:39:30.893Z,2.4
2022-12-25T07:40:31.508Z,2.32
2022-12-25T07:41:31.599Z,2.4
2022-12-25T07:42:31.703Z,2.48
2022-12-25T07:43:31.903Z,2.4
2022-12-25T07:44:31.964Z,2.8
2022-12-25T07:45:32.416Z,2.64
2022-12-25T07:46:31.949Z,2.72
2022-12-25T07:47:32.453Z,2.48
2022-12-25T07:48:32.212Z,2.4
2022-12-25T07:49:32.317Z,2.8
2022-12-25T07:50:32.472Z,2.88
2022-12-25T07:51:32.579Z,2.64
2022-12-25T07:52:35.346Z,2.48
2022-12-25T07:53:32.867Z,2.64
2022-12-25T07:54:33.023Z,2.8
2022-12-25T07:55:33.178Z,2.88
2022-12-25T07:56:33.330Z,3.04
2022-12-25T07:57:33.496Z,3.28
2022-12-25T07:58:33.639Z,3.2
2022-12-25T07:59:33.787Z,3.12
2022-12-25T08:00:33.991Z,3.12
2022-12-25T08:01:34.249Z,3.28
2022-12-25T08:02:34.499Z,3.2
2022-12-25T08:03:34.551Z,3.2
2022-12-25T08:04:34.554Z,3.28
2022-12-25T08:05:34.696Z,3.44
2022-12-25T08:06:34.861Z,3.84
2022-12-25T08:07:35.002Z,3.84
2022-12-25T08:08:35.149Z,4.16
2022-12-25T08:09:35.301Z,4.4
2022-12-25T08:10:35.450Z,4.4
2022-12-25T08:11:35.647Z,4.88
2022-12-25T08:12:35.727Z,5.2
2022-12-25T08:13:35.859Z,5.44
2022-12-25T08:14:35.992Z,4.8
2022-12-25T08:15:36.153Z,5.04
2022-12-25T08:16:36.324Z,5.44
2022-12-25T08:17:36.467Z,6
2022-12-25T08:18:36.613Z,6.08
2022-12-25T08:19:36.761Z,6.48
2022-12-25T08:20:36.911Z,8.08
2022-12-25T08:21:37.062Z,7.52
2022-12-25T08:22:37.212Z,8.639999
2022-12-25T08:23:37.386Z,8.72
2022-12-25T08:24:37.523Z,8.639999
2022-12-25T08:25:37.676Z,10.08
2022-12-25T08:26:37.835Z,11.04
2022-12-25T08:27:37.969Z,10.719999
2022-12-25T08:28:38.083Z,10.08
2022-12-25T08:29:38.241Z,11.2
2022-12-25T08:30:38.398Z,10.24
2022-12-25T08:31:42.574Z,10.4
2022-12-25T08:32:38.625Z,10.639999
2022-12-25T08:33:38.786Z,9.36
2022-12-25T08:34:38.904Z,9.2
2022-12-25T08:35:39.045Z,9.2
2022-12-25T08:36:39.186Z,9.2
2022-12-25T08:37:39.343Z,8.88
2022-12-25T08:38:39.496Z,9.04
2022-12-25T08:39:39.600Z,8.4
2022-12-25T08:40:39.747Z,8.32
2022-12-25T08:41:39.895Z,7.92
2022-12-25T08:42:40.047Z,8.08
2022-12-25T08:43:40.206Z,7.92
2022-12-25T08:44:40.355Z,7.84
2022-12-25T08:45:40.588Z,8.4
2022-12-25T08:46:40.659Z,8.72
2022-12-25T08:47:40.704Z,7.84
2022-12-25T08:48:40.912Z,7.28
2022-12-25T08:49:41.076Z,7.12
2022-12-25T08:50:41.214Z,7.28
2022-12-25T08:51:41.369Z,7.28
2022-12-25T08:52:41.522Z,8.4
2022-12-25T08:53:41.672Z,9.28
2022-12-25T08:54:41.847Z,9.12
2022-12-25T08:55:41.983Z,8.72
2022-12-25T08:56:42.127Z,8.24
2022-12-25T08:57:42.211Z,8.72
2022-12-25T08:58:42.375Z,9.52
2022-12-25T08:59:42.527Z,9.28
2022-12-25T09:00:42.660Z,8.8
2022-12-25T09:01:42.836Z,8.08
2022-12-25T09:02:42.908Z,9.04
2022-12-25T09:03:43.194Z,9.28
2022-12-25T09:04:43.139Z,9.2
2022-12-25T09:05:43.292Z,9.36
2022-12-25T09:06:43.431Z,9.28
2022-12-25T09:07:43.536Z,9.36
2022-12-25T09:08:48.459Z,9.599999
2022-12-25T09:09:43.799Z,9.599999
2022-12-25T09:10:43.941Z,9.679999
2022-12-25T09:11:44.101Z,9.52
2022-12-25T09:12:44.245Z,10
2022-12-25T09:13:44.395Z,10.24
2022-12-25T09:14:44.551Z,10.8
2022-12-25T09:15:44.732Z,10.32
2022-12-25T09:16:44.834Z,10.48
2022-12-25T09:17:44.901Z,10.48
2022-12-25T09:18:45.082Z,10.48
2022-12-25T09:19:45.220Z,10
2022-12-25T09:20:45.354Z,10.24
2022-12-25T09:21:45.505Z,10.08
2022-12-25T09:22:45.628Z,10.08
2022-12-25T09:23:45.721Z,10.32
2022-12-25T09:24:45.861Z,10.32
2022-12-25T09:25:46.012Z,10.32
2022-12-25T09:26:46.188Z,10.08
2022-12-25T09:27:46.380Z,10.32
2022-12-25T09:28:51.119Z,10.4
2022-12-25T09:29:46.619Z,10.4
2022-12-25T09:30:46.772Z,10.32
2022-12-25T09:31:46.924Z,10.4
2022-12-25T09:32:47.357Z,10.4
2022-12-25T09:33:47.504Z,10.32
2022-12-25T09:34:47.657Z,10.32
2022-12-25T09:35:47.428Z,10.4
2022-12-25T09:36:47.535Z,10.32
2022-12-25T09:37:47.675Z,10.4
2022-12-25T09:38:47.846Z,10.32
2022-12-25T09:39:47.987Z,10.24
2022-12-25T09:40:48.145Z,10.4
2022-12-25T09:41:48.280Z,10.24
2022-12-25T09:42:48.472Z,10.32
2022-12-25T09:43:48.610Z,10.32
2022-12-25T09:44:48.741Z,10.639999
2022-12-25T09:45:48.927Z,10.8
2022-12-25T09:46:49.130Z,10.8
2022-12-25T09:47:49.522Z,10.8
2022-12-25T09:48:49.640Z,10.8
2022-12-25T09:49:49.815Z,11.04
2022-12-25T09:50:49.928Z,11.2
2022-12-25T09:51:49.701Z,11.04
2022-12-25T09:52:49.858Z,11.04
2022-12-25T09:53:50.011Z,11.04
2022-12-25T09:54:50.267Z,11.04
2022-12-25T09:55:50.336Z,11.28
2022-12-25T09:56:50.470Z,11.28
2022-12-25T09:57:50.609Z,11.2
2022-12-25T09:58:50.766Z,11.12
2022-12-25T09:59:50.917Z,10.719999
2022-12-25T10:00:51.048Z,11.04
2022-12-25T10:01:51.245Z,11.12
2022-12-25T10:02:51.423Z,11.12
2022-12-25T10:03:51.462Z,11.28
2022-12-25T10:04:51.568Z,11.2
2022-12-25T10:05:51.682Z,11.28
2022-12-25T10:06:51.830Z,11.04
2022-12-25T10:07:51.973Z,11.12
2022-12-25T10:08:52.088Z,11.2
2022-12-25T10:09:52.212Z,11.04
2022-12-25T10:10:52.327Z,11.04
2022-12-25T10:11:52.535Z,11.04
2022-12-25T10:12:52.636Z,11.2
2022-12-25T10:13:52.795Z,11.04
2022-12-25T10:14:52.939Z,11.2
2022-12-25T10:15:53.123Z,11.679999
2022-12-25T10:16:53.247Z,11.44
2022-12-25T10:17:53.393Z,11.92
2022-12-25T10:18:53.495Z,11.84
2022-12-25T10:19:53.639Z,12
2022-12-25T10:20:53.797Z,12.08
2022-12-25T10:21:53.948Z,12
2022-12-25T10:22:54.148Z,12.08
2022-12-25T10:23:54.245Z,11.679999
2022-12-25T10:24:54.407Z,12
2022-12-25T10:25:54.545Z,12.48
2022-12-25T10:26:54.655Z,12.24
2022-12-25T10:27:54.797Z,13.28
2022-12-25T10:28:54.903Z,13.52
2022-12-25T10:29:55.066Z,13.28
2022-12-25T10:30:55.229Z,11.679999
2022-12-25T10:31:55.294Z,11.2
2022-12-25T10:32:55.526Z,12.32
2022-12-25T10:33:55.624Z,11.679999
2022-12-25T10:34:55.768Z,11.2
2022-12-25T10:35:55.915Z,11.52
2022-12-25T10:36:56.068Z,12
2022-12-25T10:37:56.211Z,12.08
2022-12-25T10:38:56.393Z,12.719999
2022-12-25T10:39:56.521Z,12.4
2022-12-25T10:40:56.681Z,12.88
2022-12-25T10:41:56.830Z,13.28
2022-12-25T10:42:56.975Z,13.52
2022-12-25T10:43:57.116Z,13.599999
2022-12-25T10:44:57.282Z,13.44
2022-12-25T10:45:57.512Z,13.44
2022-12-25T10:46:57.656Z,13.04
2022-12-25T10:48:03.495Z,13.04
2022-12-25T10:48:57.888Z,12.48
2022-12-25T10:49:58.045Z,12.4
2022-12-25T10:50:58.188Z,12.639999
2022-12-25T10:51:58.338Z,13.04
2022-12-25T10:52:58.490Z,12.4
2022-12-25T10:53:58.642Z,12.08
2022-12-25T10:54:58.785Z,12
2022-12-25T10:55:58.898Z,11.679999
2022-12-25T10:56:59.050Z,11.2
2022-12-25T10:57:59.236Z,10.88
2022-12-25T10:58:59.344Z,10.8
2022-12-25T10:59:59.499Z,10.639999
2022-12-25T11:00:59.669Z,10.4
2022-12-25T11:01:59.868Z,10.639999
2022-12-25T11:03:00.383Z,10.8
2022-12-25T11:04:00.136Z,11.04
2022-12-25T11:05:00.214Z,11.52
2022-12-25T11:06:00.348Z,11.679999
2022-12-25T11:07:00.519Z,11.92
2022-12-25T11:08:00.655Z,11.28
2022-12-25T11:09:00.829Z,11.52
2022-12-25T11:10:05.039Z,11.679999
2022-12-25T11:11:01.101Z,11.52
2022-12-25T11:12:01.210Z,11.52
2022-12-25T11:13:01.383Z,11.12
2022-12-25T11:14:01.519Z,11.2
2022-12-25T11:15:01.661Z,10.8
2022-12-25T11:16:01.888Z,10.719999
2022-12-25T11:17:01.907Z,10.639999
2022-12-25T11:18:02.058Z,10.639999
2022-12-25T11:19:02.192Z,10.48
2022-12-25T11:20:02.297Z,10.639999
2022-12-25T11:21:02.382Z,10.719999
2022-12-25T11:22:02.554Z,10.8
2022-12-25T11:23:02.693Z,10.719999
2022-12-25T11:24:02.841Z,10.719999
2022-12-25T11:25:02.985Z,11.04
2022-12-25T11:26:03.142Z,11.04
2022-12-25T11:27:03.295Z,11.04
2022-12-25T11:28:03.444Z,10.719999
2022-12-25T11:29:03.598Z,10.48
2022-12-25T11:30:03.700Z,10.48
2022-12-25T11:31:03.889Z,10.639999
2022-12-25T11:32:03.994Z,10.639999
2022-12-25T11:33:04.104Z,10.4
2022-12-25T11:34:04.254Z,10.48
2022-12-25T11:35:04.399Z,10.8
2022-12-25T11:36:04.546Z,10.639999
2022-12-25T11:37:04.692Z,10.24
2022-12-25T11:38:04.859Z,10
2022-12-25T11:39:05.008Z,9.84
2022-12-25T11:40:05.234Z,9.84
2022-12-25T11:41:05.259Z,9.84
2022-12-25T11:42:05.393Z,9.92
2022-12-25T11:43:08.120Z,9.84
2022-12-25T11:44:05.709Z,9.84
2022-12-25T11:45:05.860Z,9.92
2022-12-25T11:46:06.016Z,9.84
2022-12-25T11:47:06.201Z,9.679999
2022-12-25T11:48:06.317Z,9.679999
2022-12-25T11:49:06.461Z,9.679999
2022-12-25T11:50:06.623Z,9.679999
2022-12-25T11:51:06.716Z,9.84
2022-12-25T11:52:06.862Z,9.84
2022-12-25T11:53:07.023Z,9.84
2022-12-25T11:54:07.183Z,9.679999
2022-12-25T11:55:07.331Z,9.599999
2022-12-25T11:56:07.476Z,9.84
2022-12-25T11:57:07.624Z,9.679999
2022-12-25T11:58:07.757Z,9.679999
2022-12-25T11:59:07.949Z,10.08
2022-12-25T12:00:08.037Z,10.719999
2022-12-25T12:01:08.174Z,9.92
2022-12-25T12:02:08.412Z,10
2022-12-25T12:03:08.537Z,10.32
2022-12-25T12:04:08.693Z,10.24
2022-12-25T12:05:08.733Z,10.08
2022-12-25T12:06:08.899Z,10.4
2022-12-25T12:07:09.045Z,10.88
2022-12-25T12:08:09.191Z,10.8
2022-12-25T12:09:09.344Z,10.719999
2022-12-25T12:10:09.500Z,10.8
2022-12-25T12:11:09.661Z,10.88
2022-12-25T12:12:09.808Z,11.2
2022-12-25T12:13:09.962Z,11.2
2022-12-25T12:14:10.092Z,11.52
2022-12-25T12:15:10.258Z,11.52
2022-12-25T12:16:10.425Z,11.44
2022-12-25T12:17:10.561Z,11.599999
2022-12-25T12:18:10.711Z,11.599999
2022-12-25T12:19:10.860Z,11.599999
2022-12-25T12:20:11.019Z,11.28
2022-12-25T12:21:11.113Z,11.599999
2022-12-25T12:22:11.267Z,11.52
2022-12-25T12:23:11.421Z,11.12
2022-12-25T12:24:11.618Z,11.04
2022-12-25T12:25:11.726Z,10.88
2022-12-25T12:26:11.866Z,10.88
2022-12-25T12:27:12.032Z,10.88
2022-12-25T12:28:12.181Z,10.8
2022-12-25T12:29:12.294Z,10.8
2022-12-25T12:30:12.449Z,10.8
2022-12-25T12:31:12.592Z,10.88
2022-12-25T12:32:12.803Z,10.8
2022-12-25T12:33:12.888Z,11.04
2022-12-25T12:34:13.052Z,10.88
2022-12-25T12:35:13.190Z,10.719999
2022-12-25T12:36:13.279Z,10.639999
2022-12-25T12:37:13.441Z,10.8
2022-12-25T12:38:13.593Z,10.639999
2022-12-25T12:39:13.733Z,10.639999
2022-12-25T12:40:13.890Z,10.8
2022-12-25T12:41:14.045Z,10.719999
2022-12-25T12:42:14.199Z,10.639999
2022-12-25T12:43:14.354Z,10.639999
2022-12-25T12:44:14.498Z,10.48
2022-12-25T12:45:14.620Z,10.639999
2022-12-25T12:46:14.818Z,10.639999
2022-12-25T12:47:14.850Z,10.48
2022-12-25T12:48:15.008Z,10.4
2022-12-25T12:49:15.151Z,10.32
2022-12-25T12:50:15.306Z,10.32
2022-12-25T12:51:15.412Z,10.4
2022-12-25T12:52:15.567Z,10.4
2022-12-25T12:53:15.714Z,10.32
2022-12-25T12:54:15.865Z,10.4
2022-12-25T12:55:16.010Z,10.639999
2022-12-25T12:56:16.210Z,10.48
2022-12-25T12:57:16.317Z,10.4
2022-12-25T12:58:16.477Z,10.48
2022-12-25T12:59:16.656Z,10.639999
2022-12-25T13:00:16.775Z,10.48
2022-12-25T13:01:17.066Z,10.4
2022-12-25T13:02:17.073Z,10.32
2022-12-25T13:03:17.323Z,10.24
2022-12-25T13:04:17.325Z,10.32
2022-12-25T13:05:17.439Z,10.32
2022-12-25T13:06:17.572Z,10.24
2022-12-25T13:07:17.753Z,10.24
2022-12-25T13:08:17.909Z,10.24
2022-12-25T13:09:18.031Z,10.08
2022-12-25T13:10:18.182Z,10
2022-12-25T13:11:18.285Z,10
2022-12-25T13:12:18.449Z,10
2022-12-25T13:13:18.592Z,10
2022-12-25T13:14:18.732Z,9.92